Latest Coastal Weather Observations for Dum In Mirrie

IDD60701

Issued at 4:21 pm CST Thursday 24 August 2017 (issued every 10 minutes, with the page automatically refreshed every 10 minutes)

About coastal observations | Map of coastal stations | Coastal observations for NT | Marine services | Other Formats
Station Details ID: 014277 Name: DUM IN MIRRIE AIRSTRIP Lat: -12.63 Lon: 130.37 Height: 3.5 m
Data from the previous 72 hours. | See also: Recent months at Dum In Mirrie
Date/Time
CST
Temp
°C
Wind Pressure Rain since
9am
mm
Weather Cloud Vis
km
Sea
Height
m
Swell
Dir  Spd
kts
Gust
kts
hPa Trend Height
m
Period
s
Dir
24/04:00pm 29.3 NNW 6 12 1010.5 - 0.0 - - - - - - -
24/03:30pm 29.7 NW 6 10 1010.5 - 0.0 - - - - - - -
24/03:00pm 29.8 NW 6 11 1010.7 - 0.0 - - - - - - -
24/02:30pm 30.6 NW 6 11 1010.9 - 0.0 - - - - - - -
24/02:00pm 31.3 N 7 13 1011.0 - 0.0 - - - - - - -
24/01:30pm 34.1 ENE 10 15 1011.6 - 0.0 - - - - - - -
24/01:00pm 34.0 E 7 13 1012.2 - 0.0 - - - - - - -
24/12:30pm 32.9 E 7 12 1013.0 - 0.0 - - - - - - -
24/12:00pm 31.8 E 8 13 1013.6 - 0.0 - - - - - - -
24/11:30am 31.3 E 8 12 1014.1 - 0.0 - - - - - - -
24/11:00am 31.0 E 5 8 1014.4 - 0.0 - - - - - - -
24/10:30am 29.7 E 5 7 1014.8 - 0.0 - - - - - - -
24/10:00am 28.7 ESE 4 7 1014.9 - 0.0 - - - - - - -
24/09:30am 28.4 ESE 3 6 1014.9 - 0.0 - - - - - - -
24/09:00am 27.5 ESE 3 6 1014.8 - 0.0 - - - - - - -
24/08:30am 26.8 ESE 3 4 1014.8 - 0.0 - - - - - - -
24/08:00am 25.2 E 2 4 1014.7 - 0.0 - - - - - - -
24/07:30am 22.0 ESE 2 3 1014.5 - 0.0 - - - - - - -
24/07:00am 21.7 ESE 1 3 1014.2 - 0.0 - - - - - - -
24/06:30am 22.3 E 3 4 1013.9 - 0.0 - - - - - - -
24/06:00am 22.0 E 2 3 1013.8 - 0.0 - - - - - - -
24/05:30am 21.7 E 2 2 1013.6 - 0.0 - - - - - - -
24/05:00am 22.1 ENE 2 2 1013.5 - 0.0 - - - - - - -
24/04:30am 22.8 E 2 3 1013.6 - 0.0 - - - - - - -
24/04:00am 23.5 E 2 3 1013.7 - 0.0 - - - - - - -
24/03:30am 24.1 E 3 4 1013.8 - 0.0 - - - - - - -
24/03:00am 23.4 E 3 4 1013.9 - 0.0 - - - - - - -
24/02:30am 22.6 E 2 3 1013.7 - 0.0 - - - - - - -
24/02:00am 23.0 E 2 3 1014.0 - 0.0 - - - - - - -
24/01:30am 23.5 E 2 3 1014.2 - 0.0 - - - - - - -
24/01:00am 23.2 E 2 4 1014.4 - 0.0 - - - - - - -
24/12:30am 22.6 CALM 0 0 1014.4 - 0.0 - - - - - - -
24/12:00am 23.3 CALM 0 2 1014.6 - 0.0 - - - - - - -
 
Date/Time
CST
Temp
°C
Wind Pressure Rain since
9am
mm
Weather Cloud Vis
km
Sea
Height
m
Swell
Dir  Spd
kts
Gust
kts
hPa Trend Height
m
Period
s
Dir
23/11:30pm 24.0 ESE 1 2 1014.6 - 0.0 - - - - - - -
23/11:00pm 23.9 ESE 2 3 1014.3 - 0.0 - - - - - - -
23/10:30pm 23.4 CALM 0 2 1014.2 - 0.0 - - - - - - -
23/10:00pm 23.9 CALM 0 0 1014.0 - 0.0 - - - - - - -
23/09:30pm 25.2 ENE 1 2 1013.8 - 0.0 - - - - - - -
23/09:00pm 25.8 NE 3 4 1013.6 - 0.0 - - - - - - -
23/08:30pm 26.3 NE 3 5 1013.4 - 0.0 - - - - - - -
23/08:00pm 26.5 NE 4 7 1013.0 - 0.0 - - - - - - -
23/07:30pm 26.6 NE 5 8 1012.5 - 0.0 - - - - - - -
23/07:00pm 26.8 NE 6 11 1012.1 - 0.0 - - - - - - -
23/06:30pm 27.1 NE 8 15 1011.8 - 0.0 - - - - - - -
23/06:00pm 27.8 NE 10 17 1011.4 - 0.0 - - - - - - -
23/05:30pm 28.0 NNE 12 19 1011.3 - 0.0 - - - - - - -
23/05:00pm 28.4 NNE 12 23 1011.3 - 0.0 - - - - - - -
23/04:30pm 28.9 NNE 11 20 1011.4 - 0.0 - - - - - - -
23/04:00pm 29.4 NNE 11 20 1011.5 - 0.0 - - - - - - -
23/03:30pm 29.5 NNE 10 18 1011.9 - 0.0 - - - - - - -
23/03:00pm 30.2 NNE 9 17 1012.1 - 0.0 - - - - - - -
23/02:30pm 30.8 N 10 16 1012.5 - 0.0 - - - - - - -
23/02:00pm 30.2 NNE 10 15 1012.9 - 0.0 - - - - - - -
23/01:30pm 31.0 NNE 8 13 1013.4 - 0.0 - - - - - - -
23/01:00pm 31.9 NE 6 11 1013.9 - 0.0 - - - - - - -
23/12:30pm 31.3 ENE 7 13 1014.4 - 0.0 - - - - - - -
23/12:00pm 30.1 ESE 6 10 1014.8 - 0.0 - - - - - - -
23/11:30am 30.1 ENE 8 11 1015.2 - 0.0 - - - - - - -
23/11:00am 29.4 ENE 9 14 1015.6 - 0.0 - - - - - - -
23/10:30am 28.4 E 8 12 1015.8 - 0.0 - - - - - - -
23/10:00am 27.8 E 7 11 1015.7 - 0.0 - - - - - - -
23/09:30am 26.8 ENE 7 14 1015.9 - 0.0 - - - - - - -
23/09:00am 26.9 ENE 7 11 1015.7 - 0.0 - - - - - - -
23/08:30am 25.8 E 7 10 1015.6 - 0.0 - - - - - - -
23/08:00am 24.6 E 3 6 1015.4 - 0.0 - - - - - - -
23/07:30am 21.4 ESE 2 3 1015.0 - 0.0 - - - - - - -
23/07:00am 21.2 ESE 1 2 1014.8 - 0.0 - - - - - - -
23/06:30am 21.2 ESE 2 3 1014.5 - 0.0 - - - - - - -
23/06:00am 21.5 ESE 2 2 1014.3 - 0.0 - - - - - - -
23/05:30am 21.9 SE 1 2 1014.2 - 0.0 - - - - - - -
23/05:00am 22.2 ESE 2 2 1014.0 - 0.0 - - - - - - -
23/04:30am 22.3 ESE 2 2 1013.9 - 0.0 - - - - - - -
23/04:00am 22.7 ESE 2 4 1014.0 - 0.0 - - - - - - -
23/03:30am 22.1 ESE 3 5 1013.8 - 0.0 - - - - - - -
23/03:00am 20.6 E 2 3 1013.7 - 0.0 - - - - - - -
23/02:30am 21.3 ESE 2 3 1013.7 - 0.0 - - - - - - -
23/02:00am 21.1 E 1 3 1013.8 - 0.0 - - - - - - -
23/01:30am 22.3 ESE 2 3 1014.0 - 0.0 - - - - - - -
23/01:00am 22.0 CALM 0 2 1014.1 - 0.0 - - - - - - -
23/12:30am 22.0 CALM 0 0 1013.9 - 0.0 - - - - - - -
23/12:00am 22.1 CALM 0 1 1014.0 - 0.0 - - - - - - -
 
Date/Time
CST
Temp
°C
Wind Pressure Rain since
9am
mm
Weather Cloud Vis
km
Sea
Height
m
Swell
Dir  Spd
kts
Gust
kts
hPa Trend Height
m
Period
s
Dir
22/11:30pm 22.5 E 1 2 1013.9 - 0.0 - - - - - - -
22/11:00pm 22.6 NE 2 3 1013.8 - 0.0 - - - - - - -
22/10:30pm 22.7 NE 2 3 1013.8 - 0.0 - - - - - - -
22/10:00pm 22.6 NE 1 1 1013.5 - 0.0 - - - - - - -
22/09:30pm 22.4 NE 2 2 1013.2 - 0.0 - - - - - - -
22/09:00pm 23.2 CALM 0 0 1013.1 - 0.0 - - - - - - -
22/08:30pm 23.8 CALM 0 0 1012.8 - 0.0 - - - - - - -
22/08:00pm 24.7 CALM 0 0 1012.4 - 0.0 - - - - - - -
22/07:30pm 26.1 NE 2 3 1012.2 - 0.0 - - - - - - -
22/07:00pm 26.8 NE 3 6 1011.9 - 0.0 - - - - - - -
22/06:30pm 27.5 NNE 4 8 1011.6 - 0.0 - - - - - - -
22/06:00pm 28.4 N 5 9 1011.4 - 0.0 - - - - - - -
22/05:30pm 29.0 NNE 7 11 1011.1 - 0.0 - - - - - - -
22/05:00pm 29.4 N 6 9 1011.2 - 0.0 - - - - - - -
22/04:30pm 29.7 N 6 11 1011.2 - 0.0 - - - - - - -
22/04:00pm 29.5 N 8 12 1011.2 - 0.0 - - - - - - -
22/03:30pm 29.5 NNE 9 15 1011.1 - 0.0 - - - - - - -
22/03:00pm 29.8 N 8 13 1011.4 - 0.0 - - - - - - -
22/02:30pm 30.1 N 9 16 1011.7 - 0.0 - - - - - - -
22/02:00pm 30.7 N 8 14 1012.0 - 0.0 - - - - - - -
22/01:30pm 30.8 N 7 11 1012.5 - 0.0 - - - - - - -
22/01:00pm 30.5 N 6 9 1013.0 - 0.0 - - - - - - -
22/12:30pm 30.5 NE 5 9 1013.5 - 0.0 - - - - - - -
22/12:00pm 30.5 ENE 5 11 1013.9 - 0.0 - - - - - - -
22/11:30am 29.2 E 6 10 1014.3 - 0.0 - - - - - - -
22/11:00am 28.9 ENE 6 12 1014.5 - 0.0 - - - - - - -
22/10:30am 28.7 E 7 11 1014.8 - 0.0 - - - - - - -
22/10:00am 28.0 E 6 9 1014.8 - 0.0 - - - - - - -
22/09:30am 27.5 E 5 9 1014.7 - 0.0 - - - - - - -
22/09:00am 27.0 E 4 7 1014.5 - 0.0 - - - - - - -
22/08:30am 26.1 E 3 6 1014.4 - 0.0 - - - - - - -
22/08:00am 24.6 SE 2 3 1014.1 - 0.0 - - - - - - -
22/07:30am 22.8 SE 2 3 1013.9 - 0.0 - - - - - - -
22/07:00am 21.0 CALM 0 1 1013.5 - 0.0 - - - - - - -
22/06:30am 20.7 E 1 3 1013.2 - 0.0 - - - - - - -
22/06:00am 20.3 CALM 0 0 1012.7 - 0.0 - - - - - - -
22/05:30am 20.6 ESE 1 2 1012.4 - 0.0 - - - - - - -
22/05:00am 20.8 CALM 0 0 1012.1 - 0.0 - - - - - - -
22/04:30am 21.0 CALM 0 0 1011.9 - 0.0 - - - - - - -
22/04:00am 21.2 ENE 1 2 1011.9 - 0.0 - - - - - - -
22/03:30am 21.5 ENE 2 3 1012.0 - 0.0 - - - - - - -
22/03:00am 21.8 ENE 2 2 1012.1 - 0.0 - - - - - - -
22/02:30am 22.3 E 2 3 1012.3 - 0.0 - - - - - - -
22/02:00am 21.9 ESE 2 3 1012.4 - 0.0 - - - - - - -
22/01:30am 22.3 ESE 3 4 1012.5 - 0.0 - - - - - - -
22/01:00am 21.2 ENE 2 3 1012.6 - 0.0 - - - - - - -
22/12:30am 20.7 ENE 1 2 1012.8 - 0.0 - - - - - - -
22/12:00am 21.6 SE 1 3 1012.7 - 0.0 - - - - - - -
 
Date/Time
CST
Temp
°C
Wind Pressure Rain since
9am
mm
Weather Cloud Vis
km
Sea
Height
m
Swell
Dir  Spd
kts
Gust
kts
hPa Trend Height
m
Period
s
Dir
21/11:30pm 21.2 SE 1 2 1012.7 - 0.0 - - - - - - -
21/11:00pm 22.1 SSE 1 2 1012.6 - 0.0 - - - - - - -
21/10:30pm 22.7 S 2 2 1012.6 - 0.0 - - - - - - -
21/10:00pm 22.4 S 1 2 1012.4 - 0.0 - - - - - - -
21/09:30pm 22.5 CALM 0 0 1012.4 - 0.0 - - - - - - -
21/09:00pm 22.2 CALM 0 1 1012.1 - 0.0 - - - - - - -
21/08:30pm 22.7 CALM 0 0 1011.9 - 0.0 - - - - - - -
21/08:00pm 24.2 CALM 0 0 1011.5 - 0.0 - - - - - - -
21/07:30pm 25.7 CALM 0 1 1011.2 - 0.0 - - - - - - -
21/07:00pm 26.6 W 1 3 1010.9 - 0.0 - - - - - - -
21/06:30pm 27.3 W 3 5 1010.7 - 0.0 - - - - - - -
21/06:00pm 28.5 WNW 3 5 1010.3 - 0.0 - - - - - - -
21/05:30pm 29.1 NW 3 6 1010.0 - 0.0 - - - - - - -
21/05:00pm 29.6 WNW 3 7 1010.0 - 0.0 - - - - - - -
21/04:30pm 29.7 WNW 4 8 1010.1 - 0.0 - - - - - - -

Other Formats:

Comma delimited format used in spreadsheet applications
http://www.bom.gov.au/fwo/IDD60701/IDD60701.94116.axf

JavaScript Object Notation format (JSON) in row-major order
http://www.bom.gov.au/fwo/IDD60701/IDD60701.94116.json